sensor_id;sensor_type;location;lat;lon;timestamp;temperature;humidity
15690;DHT22;7945;48.816;11.506;2024-02-21T00:01:16;7.90;99.90
15690;DHT22;7945;48.816;11.506;2024-02-21T00:03:43;7.90;99.90
15690;DHT22;7945;48.816;11.506;2024-02-21T00:06:10;7.90;99.90
15690;DHT22;7945;48.816;11.506;2024-02-21T00:08:38;7.90;99.90
15690;DHT22;7945;48.816;11.506;2024-02-21T00:11:05;7.90;99.90
15690;DHT22;7945;48.816;11.506;2024-02-21T00:13:32;7.90;99.90
15690;DHT22;7945;48.816;11.506;2024-02-21T00:16:00;7.90;99.90
15690;DHT22;7945;48.816;11.506;2024-02-21T00:18:27;8.00;99.90
15690;DHT22;7945;48.816;11.506;2024-02-21T00:20:53;8.00;99.90
15690;DHT22;7945;48.816;11.506;2024-02-21T00:23:20;8.00;99.90
15690;DHT22;7945;48.816;11.506;2024-02-21T00:25:48;7.90;99.90
15690;DHT22;7945;48.816;11.506;2024-02-21T00:28:15;7.90;99.90
15690;DHT22;7945;48.816;11.506;2024-02-21T00:30:42;7.80;99.90
15690;DHT22;7945;48.816;11.506;2024-02-21T00:33:08;7.80;99.90
15690;DHT22;7945;48.816;11.506;2024-02-21T00:35:35;7.80;99.90
15690;DHT22;7945;48.816;11.506;2024-02-21T00:38:02;7.80;99.90
15690;DHT22;7945;48.816;11.506;2024-02-21T00:40:29;7.80;99.90
15690;DHT22;7945;48.816;11.506;2024-02-21T00:42:57;7.80;99.90
15690;DHT22;7945;48.816;11.506;2024-02-21T00:45:24;7.80;99.90
15690;DHT22;7945;48.816;11.506;2024-02-21T00:47:50;7.80;99.90
15690;DHT22;7945;48.816;11.506;2024-02-21T00:50:17;7.80;99.90
15690;DHT22;7945;48.816;11.506;2024-02-21T00:52:44;7.80;99.90
15690;DHT22;7945;48.816;11.506;2024-02-21T00:55:11;7.80;99.90
15690;DHT22;7945;48.816;11.506;2024-02-21T00:57:38;7.70;99.90
15690;DHT22;7945;48.816;11.506;2024-02-21T01:00:07;7.70;99.90
15690;DHT22;7945;48.816;11.506;2024-02-21T01:02:34;7.70;99.90
15690;DHT22;7945;48.816;11.506;2024-02-21T01:05:02;7.70;99.90
15690;DHT22;7945;48.816;11.506;2024-02-21T01:07:28;7.70;99.90
15690;DHT22;7945;48.816;11.506;2024-02-21T01:09:55;7.70;99.90
15690;DHT22;7945;48.816;11.506;2024-02-21T01:12:22;7.70;99.90
15690;DHT22;7945;48.816;11.506;2024-02-21T01:14:49;7.70;99.90
15690;DHT22;7945;48.816;11.506;2024-02-21T01:17:17;7.70;99.90
15690;DHT22;7945;48.816;11.506;2024-02-21T01:19:45;7.70;99.90
15690;DHT22;7945;48.816;11.506;2024-02-21T01:22:12;7.70;99.90
15690;DHT22;7945;48.816;11.506;2024-02-21T01:24:40;7.70;99.90
15690;DHT22;7945;48.816;11.506;2024-02-21T01:27:07;7.70;99.90
15690;DHT22;7945;48.816;11.506;2024-02-21T01:29:33;7.70;99.90
15690;DHT22;7945;48.816;11.506;2024-02-21T01:32:00;7.70;99.90
15690;DHT22;7945;48.816;11.506;2024-02-21T01:34:28;7.70;99.90
15690;DHT22;7945;48.816;11.506;2024-02-21T01:36:55;7.70;99.90
15690;DHT22;7945;48.816;11.506;2024-02-21T01:39:22;7.70;99.90
15690;DHT22;7945;48.816;11.506;2024-02-21T01:41:48;7.70;99.90
15690;DHT22;7945;48.816;11.506;2024-02-21T01:44:15;7.70;99.90
15690;DHT22;7945;48.816;11.506;2024-02-21T01:46:42;7.60;99.90
15690;DHT22;7945;48.816;11.506;2024-02-21T01:49:09;7.70;99.90
15690;DHT22;7945;48.816;11.506;2024-02-21T01:51:37;7.60;99.90
15690;DHT22;7945;48.816;11.506;2024-02-21T01:54:04;7.60;99.90
15690;DHT22;7945;48.816;11.506;2024-02-21T01:56:32;7.60;99.90
15690;DHT22;7945;48.816;11.506;2024-02-21T01:58:59;7.60;99.90
15690;DHT22;7945;48.816;11.506;2024-02-21T02:01:26;7.60;99.90
15690;DHT22;7945;48.816;11.506;2024-02-21T02:03:53;7.50;99.90
15690;DHT22;7945;48.816;11.506;2024-02-21T02:06:21;7.50;99.90
15690;DHT22;7945;48.816;11.506;2024-02-21T02:08:49;7.50;99.90
15690;DHT22;7945;48.816;11.506;2024-02-21T02:11:17;7.50;99.90
15690;DHT22;7945;48.816;11.506;2024-02-21T02:13:44;7.50;99.90
15690;DHT22;7945;48.816;11.506;2024-02-21T02:16:11;7.40;99.90
15690;DHT22;7945;48.816;11.506;2024-02-21T02:18:38;7.40;99.90
15690;DHT22;7945;48.816;11.506;2024-02-21T02:21:05;7.40;99.90
15690;DHT22;7945;48.816;11.506;2024-02-21T02:23:37;6.70;99.90
15690;DHT22;7945;48.816;11.506;2024-02-21T02:26:03;7.30;99.90
15690;DHT22;7945;48.816;11.506;2024-02-21T02:28:32;7.30;99.90
15690;DHT22;7945;48.816;11.506;2024-02-21T02:30:59;7.30;99.90
15690;DHT22;7945;48.816;11.506;2024-02-21T02:33:26;7.30;99.90
15690;DHT22;7945;48.816;11.506;2024-02-21T02:35:52;7.40;99.90
15690;DHT22;7945;48.816;11.506;2024-02-21T02:38:19;7.40;99.90
15690;DHT22;7945;48.816;11.506;2024-02-21T02:40:47;7.30;99.90
15690;DHT22;7945;48.816;11.506;2024-02-21T02:43:14;7.30;99.90
15690;DHT22;7945;48.816;11.506;2024-02-21T02:45:41;7.40;99.90
15690;DHT22;7945;48.816;11.506;2024-02-21T02:48:08;7.40;99.90
15690;DHT22;7945;48.816;11.506;2024-02-21T02:50:35;7.40;99.90
15690;DHT22;7945;48.816;11.506;2024-02-21T02:53:02;7.40;99.90
15690;DHT22;7945;48.816;11.506;2024-02-21T02:55:28;7.40;99.90
15690;DHT22;7945;48.816;11.506;2024-02-21T02:57:56;7.40;99.90
15690;DHT22;7945;48.816;11.506;2024-02-21T03:00:23;7.40;99.90
15690;DHT22;7945;48.816;11.506;2024-02-21T03:02:51;7.30;99.90
15690;DHT22;7945;48.816;11.506;2024-02-21T03:05:19;7.30;99.90
15690;DHT22;7945;48.816;11.506;2024-02-21T03:07:47;7.40;99.90
15690;DHT22;7945;48.816;11.506;2024-02-21T03:10:14;7.40;99.90
15690;DHT22;7945;48.816;11.506;2024-02-21T03:12:42;7.40;99.90
15690;DHT22;7945;48.816;11.506;2024-02-21T03:15:10;7.40;99.90
15690;DHT22;7945;48.816;11.506;2024-02-21T03:17:37;7.40;99.90
15690;DHT22;7945;48.816;11.506;2024-02-21T03:20:05;7.40;99.90
15690;DHT22;7945;48.816;11.506;2024-02-21T03:22:35;7.40;99.90
15690;DHT22;7945;48.816;11.506;2024-02-21T03:25:01;7.40;99.90
15690;DHT22;7945;48.816;11.506;2024-02-21T03:27:28;7.40;99.90
15690;DHT22;7945;48.816;11.506;2024-02-21T03:29:55;7.40;99.90
15690;DHT22;7945;48.816;11.506;2024-02-21T03:32:23;7.50;99.90
15690;DHT22;7945;48.816;11.506;2024-02-21T03:34:50;7.50;99.90
15690;DHT22;7945;48.816;11.506;2024-02-21T03:37:17;7.50;99.90
15690;DHT22;7945;48.816;11.506;2024-02-21T03:39:44;7.50;99.90
15690;DHT22;7945;48.816;11.506;2024-02-21T03:42:11;7.50;99.90
15690;DHT22;7945;48.816;11.506;2024-02-21T03:44:38;7.50;99.90
15690;DHT22;7945;48.816;11.506;2024-02-21T03:47:05;7.50;99.90
15690;DHT22;7945;48.816;11.506;2024-02-21T03:49:33;7.50;99.90
15690;DHT22;7945;48.816;11.506;2024-02-21T03:51:59;7.50;99.90
15690;DHT22;7945;48.816;11.506;2024-02-21T03:54:26;7.50;99.90
15690;DHT22;7945;48.816;11.506;2024-02-21T03:56:53;7.50;99.90
15690;DHT22;7945;48.816;11.506;2024-02-21T03:59:20;7.50;99.90
15690;DHT22;7945;48.816;11.506;2024-02-21T04:01:51;7.50;99.90
15690;DHT22;7945;48.816;11.506;2024-02-21T04:04:18;7.50;99.90
15690;DHT22;7945;48.816;11.506;2024-02-21T04:06:49;7.40;99.90
15690;DHT22;7945;48.816;11.506;2024-02-21T04:09:16;7.50;99.90
15690;DHT22;7945;48.816;11.506;2024-02-21T04:11:43;7.40;99.90
15690;DHT22;7945;48.816;11.506;2024-02-21T04:14:10;7.40;99.90
15690;DHT22;7945;48.816;11.506;2024-02-21T04:16:37;7.40;99.90
15690;DHT22;7945;48.816;11.506;2024-02-21T04:19:04;7.40;99.90
15690;DHT22;7945;48.816;11.506;2024-02-21T04:21:31;7.40;99.90
15690;DHT22;7945;48.816;11.506;2024-02-21T04:23:59;7.30;99.90
15690;DHT22;7945;48.816;11.506;2024-02-21T04:26:27;7.30;99.90
15690;DHT22;7945;48.816;11.506;2024-02-21T04:28:54;7.30;99.90
15690;DHT22;7945;48.816;11.506;2024-02-21T04:31:21;7.30;99.90
15690;DHT22;7945;48.816;11.506;2024-02-21T04:33:47;7.30;99.90
15690;DHT22;7945;48.816;11.506;2024-02-21T04:36:14;7.40;99.90
15690;DHT22;7945;48.816;11.506;2024-02-21T04:38:41;7.30;99.90
15690;DHT22;7945;48.816;11.506;2024-02-21T04:41:09;7.30;99.90
15690;DHT22;7945;48.816;11.506;2024-02-21T04:43:36;7.30;99.90
15690;DHT22;7945;48.816;11.506;2024-02-21T04:46:04;7.20;99.90
15690;DHT22;7945;48.816;11.506;2024-02-21T04:48:30;7.30;99.90
15690;DHT22;7945;48.816;11.506;2024-02-21T04:50:57;7.30;99.90
15690;DHT22;7945;48.816;11.506;2024-02-21T04:53:24;7.30;99.90
15690;DHT22;7945;48.816;11.506;2024-02-21T04:55:51;7.30;99.90
15690;DHT22;7945;48.816;11.506;2024-02-21T04:58:19;7.30;99.90
15690;DHT22;7945;48.816;11.506;2024-02-21T05:00:46;7.40;99.90
15690;DHT22;7945;48.816;11.506;2024-02-21T05:03:12;7.40;99.90
15690;DHT22;7945;48.816;11.506;2024-02-21T05:05:39;7.40;99.90
15690;DHT22;7945;48.816;11.506;2024-02-21T05:08:06;7.40;99.90
15690;DHT22;7945;48.816;11.506;2024-02-21T05:10:33;7.40;99.90
15690;DHT22;7945;48.816;11.506;2024-02-21T05:12:59;7.40;99.90
15690;DHT22;7945;48.816;11.506;2024-02-21T05:15:27;7.40;99.90
15690;DHT22;7945;48.816;11.506;2024-02-21T05:17:54;7.40;99.90
15690;DHT22;7945;48.816;11.506;2024-02-21T05:20:21;7.40;99.90
15690;DHT22;7945;48.816;11.506;2024-02-21T05:22:48;7.40;99.90
15690;DHT22;7945;48.816;11.506;2024-02-21T05:25:14;7.30;99.90
15690;DHT22;7945;48.816;11.506;2024-02-21T05:27:41;7.30;99.90
15690;DHT22;7945;48.816;11.506;2024-02-21T05:30:08;7.30;99.90
15690;DHT22;7945;48.816;11.506;2024-02-21T05:32:37;7.30;99.90
15690;DHT22;7945;48.816;11.506;2024-02-21T05:35:04;7.30;99.90
15690;DHT22;7945;48.816;11.506;2024-02-21T05:37:30;7.30;99.90
15690;DHT22;7945;48.816;11.506;2024-02-21T05:39:57;7.30;99.90
15690;DHT22;7945;48.816;11.506;2024-02-21T05:42:24;7.30;99.90
15690;DHT22;7945;48.816;11.506;2024-02-21T05:44:51;7.30;99.90
15690;DHT22;7945;48.816;11.506;2024-02-21T05:47:17;7.50;99.90
15690;DHT22;7945;48.816;11.506;2024-02-21T05:49:47;7.50;99.90
15690;DHT22;7945;48.816;11.506;2024-02-21T05:52:14;7.50;99.90
15690;DHT22;7945;48.816;11.506;2024-02-21T05:54:41;7.40;99.90
15690;DHT22;7945;48.816;11.506;2024-02-21T05:57:08;7.50;99.90
15690;DHT22;7945;48.816;11.506;2024-02-21T05:59:35;7.50;99.90
15690;DHT22;7945;48.816;11.506;2024-02-21T06:02:05;7.50;99.90
15690;DHT22;7945;48.816;11.506;2024-02-21T06:04:32;7.60;99.90
15690;DHT22;7945;48.816;11.506;2024-02-21T06:07:00;7.50;99.90
15690;DHT22;7945;48.816;11.506;2024-02-21T06:09:27;7.50;99.90
15690;DHT22;7945;48.816;11.506;2024-02-21T06:11:54;7.50;99.90
15690;DHT22;7945;48.816;11.506;2024-02-21T06:16:16;7.40;99.90
15690;DHT22;7945;48.816;11.506;2024-02-21T06:18:43;7.40;99.90
15690;DHT22;7945;48.816;11.506;2024-02-21T06:21:10;7.40;99.90
15690;DHT22;7945;48.816;11.506;2024-02-21T06:23:38;7.30;99.90
15690;DHT22;7945;48.816;11.506;2024-02-21T06:26:04;7.30;99.90
15690;DHT22;7945;48.816;11.506;2024-02-21T06:28:31;7.30;99.90
15690;DHT22;7945;48.816;11.506;2024-02-21T06:30:58;7.20;99.90
15690;DHT22;7945;48.816;11.506;2024-02-21T06:33:26;7.20;99.90
15690;DHT22;7945;48.816;11.506;2024-02-21T06:35:53;7.20;99.90
15690;DHT22;7945;48.816;11.506;2024-02-21T06:38:20;7.20;99.90
15690;DHT22;7945;48.816;11.506;2024-02-21T06:40:46;7.30;99.90
15690;DHT22;7945;48.816;11.506;2024-02-21T06:43:17;7.20;99.90
15690;DHT22;7945;48.816;11.506;2024-02-21T06:45:45;7.30;99.90
15690;DHT22;7945;48.816;11.506;2024-02-21T06:48:16;7.30;99.90
15690;DHT22;7945;48.816;11.506;2024-02-21T06:50:44;7.40;99.90
15690;DHT22;7945;48.816;11.506;2024-02-21T06:53:11;7.40;99.90
15690;DHT22;7945;48.816;11.506;2024-02-21T06:55:38;7.40;99.90
15690;DHT22;7945;48.816;11.506;2024-02-21T06:58:05;7.40;99.90
15690;DHT22;7945;48.816;11.506;2024-02-21T07:00:34;7.50;99.90
15690;DHT22;7945;48.816;11.506;2024-02-21T07:03:00;7.50;99.90
15690;DHT22;7945;48.816;11.506;2024-02-21T07:05:28;7.50;99.90
15690;DHT22;7945;48.816;11.506;2024-02-21T07:07:56;7.50;99.90
15690;DHT22;7945;48.816;11.506;2024-02-21T07:10:22;7.50;99.90
15690;DHT22;7945;48.816;11.506;2024-02-21T07:12:49;7.50;99.90
15690;DHT22;7945;48.816;11.506;2024-02-21T07:15:17;7.50;99.90
15690;DHT22;7945;48.816;11.506;2024-02-21T07:17:44;7.60;99.90
15690;DHT22;7945;48.816;11.506;2024-02-21T07:20:11;7.60;99.90
15690;DHT22;7945;48.816;11.506;2024-02-21T07:22:38;7.70;99.90
15690;DHT22;7945;48.816;11.506;2024-02-21T07:25:07;7.70;99.90
15690;DHT22;7945;48.816;11.506;2024-02-21T07:27:34;7.80;99.90
15690;DHT22;7945;48.816;11.506;2024-02-21T07:30:00;7.90;99.90
15690;DHT22;7945;48.816;11.506;2024-02-21T07:32:28;7.80;99.90
15690;DHT22;7945;48.816;11.506;2024-02-21T07:34:55;7.90;99.90
15690;DHT22;7945;48.816;11.506;2024-02-21T07:37:21;7.90;99.90
15690;DHT22;7945;48.816;11.506;2024-02-21T07:39:48;8.00;99.90
15690;DHT22;7945;48.816;11.506;2024-02-21T07:42:16;8.00;99.90
15690;DHT22;7945;48.816;11.506;2024-02-21T07:44:43;8.00;99.90
15690;DHT22;7945;48.816;11.506;2024-02-21T07:47:10;8.00;99.90
15690;DHT22;7945;48.816;11.506;2024-02-21T07:49:41;8.00;99.90
15690;DHT22;7945;48.816;11.506;2024-02-21T07:52:08;8.10;99.90
15690;DHT22;7945;48.816;11.506;2024-02-21T07:54:35;8.20;99.90
15690;DHT22;7945;48.816;11.506;2024-02-21T07:57:02;8.20;99.90
15690;DHT22;7945;48.816;11.506;2024-02-21T07:59:30;8.20;99.90
15690;DHT22;7945;48.816;11.506;2024-02-21T08:01:57;8.20;99.90
15690;DHT22;7945;48.816;11.506;2024-02-21T08:04:24;8.20;99.90
15690;DHT22;7945;48.816;11.506;2024-02-21T08:06:52;8.20;99.90
15690;DHT22;7945;48.816;11.506;2024-02-21T08:09:21;8.30;99.90
15690;DHT22;7945;48.816;11.506;2024-02-21T08:11:48;8.30;99.90
15690;DHT22;7945;48.816;11.506;2024-02-21T08:14:15;8.30;99.90
15690;DHT22;7945;48.816;11.506;2024-02-21T08:16:43;8.30;99.90
15690;DHT22;7945;48.816;11.506;2024-02-21T08:19:10;8.30;99.90
15690;DHT22;7945;48.816;11.506;2024-02-21T08:21:37;8.30;99.90
15690;DHT22;7945;48.816;11.506;2024-02-21T08:24:04;8.30;99.90
15690;DHT22;7945;48.816;11.506;2024-02-21T08:26:31;8.40;99.90
15690;DHT22;7945;48.816;11.506;2024-02-21T08:28:58;8.40;99.90
15690;DHT22;7945;48.816;11.506;2024-02-21T08:31:26;8.50;99.90
15690;DHT22;7945;48.816;11.506;2024-02-21T08:33:58;8.50;99.90
15690;DHT22;7945;48.816;11.506;2024-02-21T08:36:28;8.50;99.90
15690;DHT22;7945;48.816;11.506;2024-02-21T08:38:55;8.50;99.90
15690;DHT22;7945;48.816;11.506;2024-02-21T08:41:23;8.50;99.90
15690;DHT22;7945;48.816;11.506;2024-02-21T08:43:50;8.50;99.90
15690;DHT22;7945;48.816;11.506;2024-02-21T08:46:16;8.60;99.90
15690;DHT22;7945;48.816;11.506;2024-02-21T08:48:43;8.60;99.90
15690;DHT22;7945;48.816;11.506;2024-02-21T08:51:12;8.60;99.90
15690;DHT22;7945;48.816;11.506;2024-02-21T08:53:39;8.70;99.90
15690;DHT22;7945;48.816;11.506;2024-02-21T08:56:07;8.90;99.90
15690;DHT22;7945;48.816;11.506;2024-02-21T08:58:35;9.00;99.90
15690;DHT22;7945;48.816;11.506;2024-02-21T09:01:02;9.10;99.90
15690;DHT22;7945;48.816;11.506;2024-02-21T09:03:31;9.20;99.90
15690;DHT22;7945;48.816;11.506;2024-02-21T09:05:58;9.30;99.90
15690;DHT22;7945;48.816;11.506;2024-02-21T09:08:26;9.40;99.90
15690;DHT22;7945;48.816;11.506;2024-02-21T09:10:53;9.60;99.90
15690;DHT22;7945;48.816;11.506;2024-02-21T09:13:20;9.70;99.90
15690;DHT22;7945;48.816;11.506;2024-02-21T09:15:47;9.80;99.90
15690;DHT22;7945;48.816;11.506;2024-02-21T09:18:14;9.80;99.90
15690;DHT22;7945;48.816;11.506;2024-02-21T09:20:41;9.90;99.90
15690;DHT22;7945;48.816;11.506;2024-02-21T09:23:08;10.10;99.90
15690;DHT22;7945;48.816;11.506;2024-02-21T09:25:36;10.10;99.90
15690;DHT22;7945;48.816;11.506;2024-02-21T09:28:03;10.20;99.80
15690;DHT22;7945;48.816;11.506;2024-02-21T09:30:31;10.30;99.90
15690;DHT22;7945;48.816;11.506;2024-02-21T09:32:58;10.40;99.90
15690;DHT22;7945;48.816;11.506;2024-02-21T09:35:26;10.50;99.70
15690;DHT22;7945;48.816;11.506;2024-02-21T09:37:53;10.60;99.20
15690;DHT22;7945;48.816;11.506;2024-02-21T09:40:20;10.70;98.80
15690;DHT22;7945;48.816;11.506;2024-02-21T09:42:48;10.60;98.80
15690;DHT22;7945;48.816;11.506;2024-02-21T09:45:21;10.70;98.90
15690;DHT22;7945;48.816;11.506;2024-02-21T09:47:56;10.70;99.00
15690;DHT22;7945;48.816;11.506;2024-02-21T09:50:26;10.80;98.90
15690;DHT22;7945;48.816;11.506;2024-02-21T09:52:54;11.00;98.80
15690;DHT22;7945;48.816;11.506;2024-02-21T09:55:23;11.20;97.80
15690;DHT22;7945;48.816;11.506;2024-02-21T09:57:52;11.30;97.90
15690;DHT22;7945;48.816;11.506;2024-02-21T10:00:20;11.30;97.90
15690;DHT22;7945;48.816;11.506;2024-02-21T10:02:48;11.40;97.90
15690;DHT22;7945;48.816;11.506;2024-02-21T10:05:15;11.40;97.30
15690;DHT22;7945;48.816;11.506;2024-02-21T10:07:43;11.40;97.30
15690;DHT22;7945;48.816;11.506;2024-02-21T10:10:10;11.30;97.20
15690;DHT22;7945;48.816;11.506;2024-02-21T10:12:37;11.40;97.20
15690;DHT22;7945;48.816;11.506;2024-02-21T10:15:20;11.40;96.80
15690;DHT22;7945;48.816;11.506;2024-02-21T10:17:47;11.50;97.20
15690;DHT22;7945;48.816;11.506;2024-02-21T10:20:14;11.50;97.60
15690;DHT22;7945;48.816;11.506;2024-02-21T10:22:42;11.60;96.70
15690;DHT22;7945;48.816;11.506;2024-02-21T10:25:09;11.60;96.80
15690;DHT22;7945;48.816;11.506;2024-02-21T10:27:36;11.70;96.60
15690;DHT22;7945;48.816;11.506;2024-02-21T10:30:04;11.70;96.60
15690;DHT22;7945;48.816;11.506;2024-02-21T10:32:32;11.80;96.50
15690;DHT22;7945;48.816;11.506;2024-02-21T10:35:03;11.90;96.40
15690;DHT22;7945;48.816;11.506;2024-02-21T10:37:30;11.90;95.80
15690;DHT22;7945;48.816;11.506;2024-02-21T10:39:57;12.00;96.40
15690;DHT22;7945;48.816;11.506;2024-02-21T10:42:29;12.10;95.80
15690;DHT22;7945;48.816;11.506;2024-02-21T10:45:00;12.20;96.10
15690;DHT22;7945;48.816;11.506;2024-02-21T10:47:28;12.30;96.30
15690;DHT22;7945;48.816;11.506;2024-02-21T10:50:02;12.30;95.70
15690;DHT22;7945;48.816;11.506;2024-02-21T10:52:36;12.20;95.60
15690;DHT22;7945;48.816;11.506;2024-02-21T10:55:10;12.30;95.60
15690;DHT22;7945;48.816;11.506;2024-02-21T10:57:41;12.30;95.50
15690;DHT22;7945;48.816;11.506;2024-02-21T11:00:10;12.30;95.10
15690;DHT22;7945;48.816;11.506;2024-02-21T11:02:38;12.40;95.70
15690;DHT22;7945;48.816;11.506;2024-02-21T11:05:08;12.40;95.60
15690;DHT22;7945;48.816;11.506;2024-02-21T11:07:37;12.50;95.10
15690;DHT22;7945;48.816;11.506;2024-02-21T11:10:05;12.50;95.50
15690;DHT22;7945;48.816;11.506;2024-02-21T11:12:33;12.60;95.20
15690;DHT22;7945;48.816;11.506;2024-02-21T11:15:09;12.60;95.30
15690;DHT22;7945;48.816;11.506;2024-02-21T11:17:38;12.70;94.70
15690;DHT22;7945;48.816;11.506;2024-02-21T11:20:12;12.70;95.10
15690;DHT22;7945;48.816;11.506;2024-02-21T11:22:41;12.70;94.30
15690;DHT22;7945;48.816;11.506;2024-02-21T11:25:09;12.60;94.60
15690;DHT22;7945;48.816;11.506;2024-02-21T11:27:37;12.60;94.10
15690;DHT22;7945;48.816;11.506;2024-02-21T11:30:05;12.50;94.20
15690;DHT22;7945;48.816;11.506;2024-02-21T11:32:32;12.40;94.20
15690;DHT22;7945;48.816;11.506;2024-02-21T11:35:00;12.30;95.00
15690;DHT22;7945;48.816;11.506;2024-02-21T11:37:31;12.40;94.60
15690;DHT22;7945;48.816;11.506;2024-02-21T11:39:59;12.40;95.10
15690;DHT22;7945;48.816;11.506;2024-02-21T11:42:26;12.50;95.20
15690;DHT22;7945;48.816;11.506;2024-02-21T11:44:53;12.50;95.00
15690;DHT22;7945;48.816;11.506;2024-02-21T11:47:22;12.50;95.10
15690;DHT22;7945;48.816;11.506;2024-02-21T11:49:49;12.60;95.10
15690;DHT22;7945;48.816;11.506;2024-02-21T11:52:21;12.60;94.90
15690;DHT22;7945;48.816;11.506;2024-02-21T11:54:52;12.60;95.40
15690;DHT22;7945;48.816;11.506;2024-02-21T11:57:20;12.70;94.90
15690;DHT22;7945;48.816;11.506;2024-02-21T11:59:47;12.70;94.40
15690;DHT22;7945;48.816;11.506;2024-02-21T12:02:14;12.70;94.90
15690;DHT22;7945;48.816;11.506;2024-02-21T12:04:42;13.00;94.90
15690;DHT22;7945;48.816;11.506;2024-02-21T12:07:09;12.80;94.60
15690;DHT22;7945;48.816;11.506;2024-02-21T12:09:35;12.80;94.60
15690;DHT22;7945;48.816;11.506;2024-02-21T12:12:05;13.30;94.70
15690;DHT22;7945;48.816;11.506;2024-02-21T12:14:33;12.80;94.30
15690;DHT22;7945;48.816;11.506;2024-02-21T12:17:00;12.80;94.20
15690;DHT22;7945;48.816;11.506;2024-02-21T12:19:29;12.80;94.40
15690;DHT22;7945;48.816;11.506;2024-02-21T12:21:58;12.80;94.10
15690;DHT22;7945;48.816;11.506;2024-02-21T12:24:26;12.90;93.80
15690;DHT22;7945;48.816;11.506;2024-02-21T12:26:54;13.00;93.10
15690;DHT22;7945;48.816;11.506;2024-02-21T12:29:23;13.10;93.20
15690;DHT22;7945;48.816;11.506;2024-02-21T12:31:51;13.10;92.70
15690;DHT22;7945;48.816;11.506;2024-02-21T12:34:17;13.00;92.50
15690;DHT22;7945;48.816;11.506;2024-02-21T12:36:45;13.00;92.60
15690;DHT22;7945;48.816;11.506;2024-02-21T12:39:13;13.00;92.50
15690;DHT22;7945;48.816;11.506;2024-02-21T12:41:40;13.10;93.00
15690;DHT22;7945;48.816;11.506;2024-02-21T12:44:08;13.20;92.30
15690;DHT22;7945;48.816;11.506;2024-02-21T12:46:38;13.30;92.60
15690;DHT22;7945;48.816;11.506;2024-02-21T12:49:05;13.50;93.40
15690;DHT22;7945;48.816;11.506;2024-02-21T12:51:33;13.50;91.70
15690;DHT22;7945;48.816;11.506;2024-02-21T12:54:00;13.50;91.90
15690;DHT22;7945;48.816;11.506;2024-02-21T12:56:28;13.50;92.70
15690;DHT22;7945;48.816;11.506;2024-02-21T12:58:56;13.50;91.80
15690;DHT22;7945;48.816;11.506;2024-02-21T13:01:23;13.60;91.80
15690;DHT22;7945;48.816;11.506;2024-02-21T13:03:51;13.60;92.10
15690;DHT22;7945;48.816;11.506;2024-02-21T13:06:19;13.60;92.10
15690;DHT22;7945;48.816;11.506;2024-02-21T13:08:46;13.60;91.90
15690;DHT22;7945;48.816;11.506;2024-02-21T13:11:13;13.60;91.00
15690;DHT22;7945;48.816;11.506;2024-02-21T13:13:40;13.50;90.70
15690;DHT22;7945;48.816;11.506;2024-02-21T13:16:07;13.40;90.70
15690;DHT22;7945;48.816;11.506;2024-02-21T13:18:34;13.40;90.90
15690;DHT22;7945;48.816;11.506;2024-02-21T13:21:04;13.50;90.60
15690;DHT22;7945;48.816;11.506;2024-02-21T13:23:31;13.40;90.20
15690;DHT22;7945;48.816;11.506;2024-02-21T13:25:58;13.50;90.30
15690;DHT22;7945;48.816;11.506;2024-02-21T13:28:25;13.40;90.50
15690;DHT22;7945;48.816;11.506;2024-02-21T13:30:52;13.40;90.40
15690;DHT22;7945;48.816;11.506;2024-02-21T13:33:18;13.40;90.60
15690;DHT22;7945;48.816;11.506;2024-02-21T13:35:45;13.50;90.90
15690;DHT22;7945;48.816;11.506;2024-02-21T13:38:13;13.50;90.20
15690;DHT22;7945;48.816;11.506;2024-02-21T13:40:40;13.50;89.70
15690;DHT22;7945;48.816;11.506;2024-02-21T13:43:07;13.50;90.50
15690;DHT22;7945;48.816;11.506;2024-02-21T13:45:34;13.50;89.80
15690;DHT22;7945;48.816;11.506;2024-02-21T13:48:01;13.50;89.70
15690;DHT22;7945;48.816;11.506;2024-02-21T13:50:30;13.50;90.00
15690;DHT22;7945;48.816;11.506;2024-02-21T13:52:57;13.50;89.70
15690;DHT22;7945;48.816;11.506;2024-02-21T13:55:25;13.40;89.10
15690;DHT22;7945;48.816;11.506;2024-02-21T13:57:52;13.30;90.20
15690;DHT22;7945;48.816;11.506;2024-02-21T14:00:19;13.30;89.70
15690;DHT22;7945;48.816;11.506;2024-02-21T14:02:46;13.30;90.00
15690;DHT22;7945;48.816;11.506;2024-02-21T14:05:13;13.30;89.60
15690;DHT22;7945;48.816;11.506;2024-02-21T14:07:40;13.30;89.20
15690;DHT22;7945;48.816;11.506;2024-02-21T14:10:08;13.30;90.00
15690;DHT22;7945;48.816;11.506;2024-02-21T14:12:37;13.30;90.30
15690;DHT22;7945;48.816;11.506;2024-02-21T14:15:06;13.30;90.10
15690;DHT22;7945;48.816;11.506;2024-02-21T14:17:33;13.40;90.20
15690;DHT22;7945;48.816;11.506;2024-02-21T14:19:59;13.40;89.50
15690;DHT22;7945;48.816;11.506;2024-02-21T14:22:26;13.40;88.10
15690;DHT22;7945;48.816;11.506;2024-02-21T14:24:53;13.40;89.70
15690;DHT22;7945;48.816;11.506;2024-02-21T14:27:22;13.50;89.40
15690;DHT22;7945;48.816;11.506;2024-02-21T14:29:50;13.50;89.30
15690;DHT22;7945;48.816;11.506;2024-02-21T14:32:16;13.40;88.00
15690;DHT22;7945;48.816;11.506;2024-02-21T14:34:43;13.40;89.60
15690;DHT22;7945;48.816;11.506;2024-02-21T14:37:10;13.30;88.80
15690;DHT22;7945;48.816;11.506;2024-02-21T14:39:38;13.30;90.00
15690;DHT22;7945;48.816;11.506;2024-02-21T14:42:06;13.30;88.90
15690;DHT22;7945;48.816;11.506;2024-02-21T14:44:35;13.20;88.20
15690;DHT22;7945;48.816;11.506;2024-02-21T14:47:03;13.20;88.60
15690;DHT22;7945;48.816;11.506;2024-02-21T14:49:30;13.10;88.90
15690;DHT22;7945;48.816;11.506;2024-02-21T14:51:57;13.20;89.00
15690;DHT22;7945;48.816;11.506;2024-02-21T14:54:23;13.10;89.10
15690;DHT22;7945;48.816;11.506;2024-02-21T14:56:51;13.20;89.30
15690;DHT22;7945;48.816;11.506;2024-02-21T14:59:17;13.10;89.30
15690;DHT22;7945;48.816;11.506;2024-02-21T15:01:44;13.10;89.90
15690;DHT22;7945;48.816;11.506;2024-02-21T15:04:13;13.10;89.40
15690;DHT22;7945;48.816;11.506;2024-02-21T15:06:40;13.10;90.00
15690;DHT22;7945;48.816;11.506;2024-02-21T15:09:06;13.10;90.00
15690;DHT22;7945;48.816;11.506;2024-02-21T15:11:33;13.10;90.30
15690;DHT22;7945;48.816;11.506;2024-02-21T15:14:00;13.10;90.20
15690;DHT22;7945;48.816;11.506;2024-02-21T15:16:27;13.10;90.20
15690;DHT22;7945;48.816;11.506;2024-02-21T15:18:54;13.00;90.30
15690;DHT22;7945;48.816;11.506;2024-02-21T15:21:22;13.00;90.20
15690;DHT22;7945;48.816;11.506;2024-02-21T15:23:49;13.00;90.50
15690;DHT22;7945;48.816;11.506;2024-02-21T15:26:16;12.90;90.10
15690;DHT22;7945;48.816;11.506;2024-02-21T15:28:43;12.90;91.20
15690;DHT22;7945;48.816;11.506;2024-02-21T15:31:19;12.80;90.70
15690;DHT22;7945;48.816;11.506;2024-02-21T15:33:47;12.80;90.70
15690;DHT22;7945;48.816;11.506;2024-02-21T15:36:14;12.80;90.80
15690;DHT22;7945;48.816;11.506;2024-02-21T15:38:42;12.70;92.90
15690;DHT22;7945;48.816;11.506;2024-02-21T15:41:11;12.70;90.90
15690;DHT22;7945;48.816;11.506;2024-02-21T15:43:38;12.70;91.00